Time;durP1;ratioP1;P1;durP2;ratioP2;P2;SDS_P1;SDS_P2;PMS_P1;PMS_P2;Temp;Humidity;BMP_temperature;BMP_pressure;BME280_temperature;BME280_humidity;BME280_pressure;Samples;Min_cycle;Max_cycle;Signal;HPM_P1;HPM_P2
2022/10/10 04:31:12;;;;;;;;;17.00;16.33;;;;;;;;5622825;22;46352;-68
2022/10/10 04:33:37;;;;;;;;;20.33;15.00;;;;;;;;5003500;28;45654;-68
2022/10/10 04:36:03;;;;;;;;;18.00;14.67;;;;;;;;5016037;28;45359;-68
2022/10/10 04:38:28;;;;;;;;;19.33;16.33;;;;;;;;5015052;28;45421;-68
2022/10/10 04:40:53;;;;;;;;;22.00;19.33;;;;;;;;5015285;28;45477;-68
2022/10/10 04:43:19;;;;;;;;;23.33;16.00;;;;;;;;5018087;28;45499;-68
2022/10/10 04:45:44;;;;;;;;;20.00;18.33;;;;;;;;5016806;28;45683;-68
2022/10/10 04:48:10;;;;;;;;;19.00;16.00;;;;;;;;5016840;28;45399;-69
2022/10/10 04:50:35;;;;;;;;;16.67;15.67;;;;;;;;5018492;28;45360;-69
2022/10/10 04:53:00;;;;;;;;;18.00;16.33;;;;;;;;5018236;28;45570;-69
2022/10/10 04:55:26;;;;;;;;;19.67;18.00;;;;;;;;5018013;28;45522;-69
2022/10/10 04:57:51;;;;;;;;;19.67;16.00;;;;;;;;5016214;28;45300;-69
2022/10/10 05:00:16;;;;;;;;;18.33;16.00;;;;;;;;5006006;28;45590;-68
2022/10/10 05:02:41;;;;;;;;;20.00;17.00;;;;;;;;5018482;28;45697;-69
2022/10/10 05:05:07;;;;;;;;;21.00;16.67;;;;;;;;5010941;28;45261;-70
2022/10/10 05:07:32;;;;;;;;;18.67;17.00;;;;;;;;5004450;28;45352;-70
2022/10/10 05:09:57;;;;;;;;;15.67;14.00;;;;;;;;5009476;28;46618;-70
2022/10/10 05:12:22;;;;;;;;;19.00;16.33;;;;;;;;5008299;28;45587;-69
2022/10/10 05:14:48;;;;;;;;;21.00;17.33;;;;;;;;5016023;28;46207;-69
2022/10/10 05:17:13;;;;;;;;;7.67;6.33;;;;;;;;5017584;28;45793;-69
2022/10/10 05:19:38;;;;;;;;;17.00;14.00;;;;;;;;5012449;28;45618;-69
2022/10/10 05:22:03;;;;;;;;;19.67;16.67;;;;;;;;5006732;28;45433;-69
2022/10/10 05:24:28;;;;;;;;;18.67;16.00;;;;;;;;4999815;28;45340;-69
2022/10/10 05:26:54;;;;;;;;;18.00;15.00;;;;;;;;5009058;28;45684;-69
2022/10/10 05:29:19;;;;;;;;;20.33;13.33;;;;;;;;5005089;28;45300;-70
2022/10/10 05:31:44;;;;;;;;;17.00;13.33;;;;;;;;5000049;28;45409;-69
2022/10/10 05:34:13;;;;;;;;;20.00;17.00;;;;;;;;5004807;28;45578;-69
2022/10/10 05:36:39;;;;;;;;;13.67;13.67;;;;;;;;5004135;28;45564;-69
2022/10/10 05:39:04;;;;;;;;;15.33;14.00;;;;;;;;5010190;28;45449;-69
2022/10/10 05:41:29;;;;;;;;;16.33;16.00;;;;;;;;5012330;28;45381;-69
2022/10/10 05:43:55;;;;;;;;;19.33;14.67;;;;;;;;5015999;28;45415;-70
2022/10/10 05:46:23;;;;;;;;;21.00;17.33;;;;;;;;5016483;28;45498;-70
2022/10/10 05:48:48;;;;;;;;;14.67;13.33;;;;;;;;5015918;28;45871;-68
2022/10/10 05:51:13;;;;;;;;;17.33;15.33;;;;;;;;5017527;28;45749;-69
2022/10/10 05:53:38;;;;;;;;;15.00;13.00;;;;;;;;5016965;28;45625;-69
2022/10/10 05:56:04;;;;;;;;;18.67;16.67;;;;;;;;5015401;28;45507;-69
2022/10/10 05:58:29;;;;;;;;;15.67;15.33;;;;;;;;5016789;28;45333;-70
2022/10/10 06:01:00;;;;;;;;;13.00;13.00;;;;;;;;5016655;28;45400;-69
2022/10/10 06:03:25;;;;;;;;;20.00;18.33;;;;;;;;5016029;28;45258;-70
2022/10/10 06:05:51;;;;;;;;;18.00;16.33;;;;;;;;5016297;28;45578;-69
2022/10/10 06:08:16;;;;;;;;;17.00;15.00;;;;;;;;5017460;28;45327;-70
2022/10/10 06:10:43;;;;;;;;;18.33;15.00;;;;;;;;5019460;28;45270;-70
2022/10/10 06:13:10;;;;;;;;;16.67;15.67;;;;;;;;5018444;28;45919;-70
2022/10/10 06:15:35;;;;;;;;;17.33;17.00;;;;;;;;5017271;28;45484;-70
2022/10/10 06:18:00;;;;;;;;;15.00;14.00;;;;;;;;5010024;28;45489;-69
2022/10/10 06:20:25;;;;;;;;;14.00;12.67;;;;;;;;5020599;28;45390;-70
2022/10/10 06:22:50;;;;;;;;;12.67;11.00;;;;;;;;5020390;28;45554;-70
2022/10/10 06:25:16;;;;;;;;;15.33;15.33;;;;;;;;5020028;28;45592;-70
2022/10/10 06:27:41;;;;;;;;;13.67;11.67;;;;;;;;5017932;28;45538;-69
2022/10/10 06:30:06;;;;;;;;;12.33;11.67;;;;;;;;5019546;28;45556;-69
2022/10/10 06:32:32;;;;;;;;;13.67;12.00;;;;;;;;5015923;28;45604;-69
2022/10/10 06:34:57;;;;;;;;;15.00;13.67;;;;;;;;5014028;28;45559;-68
2022/10/10 06:37:22;;;;;;;;;13.67;12.00;;;;;;;;5012412;28;45473;-63
2022/10/10 06:39:47;;;;;;;;;8.67;8.33;;;;;;;;5017912;28;45488;-68
2022/10/10 06:42:12;;;;;;;;;12.67;12.67;;;;;;;;5018945;28;45396;-68
2022/10/10 06:44:38;;;;;;;;;13.67;11.67;;;;;;;;5018193;28;45381;-69
2022/10/10 06:47:03;;;;;;;;;12.67;12.67;;;;;;;;5019052;28;45598;-69
2022/10/10 06:49:28;;;;;;;;;14.33;13.00;;;;;;;;5020325;28;45448;-69
2022/10/10 06:51:54;;;;;;;;;8.00;8.00;;;;;;;;5001317;28;46749;-69
2022/10/10 06:54:19;;;;;;;;;13.33;11.33;;;;;;;;5020430;28;45403;-69
2022/10/10 06:56:44;;;;;;;;;16.33;12.00;;;;;;;;5020156;28;45423;-69
2022/10/10 06:59:09;;;;;;;;;16.33;12.67;;;;;;;;5020320;28;45619;-69
2022/10/10 07:01:34;;;;;;;;;12.00;12.00;;;;;;;;5019746;28;45639;-69
2022/10/10 07:04:00;;;;;;;;;15.67;13.67;;;;;;;;5019479;28;45467;-70
2022/10/10 07:06:25;;;;;;;;;14.00;12.33;;;;;;;;5019411;28;45472;-69
2022/10/10 07:08:50;;;;;;;;;15.00;15.00;;;;;;;;5019932;28;45417;-69
2022/10/10 07:11:15;;;;;;;;;13.67;12.33;;;;;;;;5019899;28;46474;-69
2022/10/10 07:13:41;;;;;;;;;13.00;13.00;;;;;;;;5020019;28;45320;-69
2022/10/10 07:16:06;;;;;;;;;14.33;13.00;;;;;;;;5019978;28;45344;-69
2022/10/10 07:18:32;;;;;;;;;12.33;12.33;;;;;;;;5020156;28;45519;-68
2022/10/10 07:20:58;;;;;;;;;15.00;13.67;;;;;;;;5010194;28;45501;-68
2022/10/10 07:23:24;;;;;;;;;16.67;13.33;;;;;;;;5019429;28;45421;-68
2022/10/10 07:25:49;;;;;;;;;14.00;13.00;;;;;;;;5019217;28;45439;-68
2022/10/10 07:28:15;;;;;;;;;12.00;10.33;;;;;;;;5019563;28;45490;-68
2022/10/10 07:30:43;;;;;;;;;16.00;15.67;;;;;;;;5019598;28;45475;-67
2022/10/10 07:33:09;;;;;;;;;16.67;14.33;;;;;;;;5017989;28;45452;-68
2022/10/10 07:35:41;;;;;;;;;13.67;11.67;;;;;;;;5017216;28;45558;-68
2022/10/10 07:38:06;;;;;;;;;17.00;13.00;;;;;;;;5013988;28;46262;-68
2022/10/10 07:40:31;;;;;;;;;13.00;13.00;;;;;;;;5022919;28;47074;-68
2022/10/10 07:42:58;;;;;;;;;18.00;12.00;;;;;;;;5024920;28;45551;-68
2022/10/10 07:45:23;;;;;;;;;17.00;14.00;;;;;;;;5012043;28;45431;-68
2022/10/10 07:47:50;;;;;;;;;13.33;13.33;;;;;;;;5018164;28;45365;-68
2022/10/10 07:50:17;;;;;;;;;14.33;14.00;;;;;;;;5003646;28;47238;-68
2022/10/10 07:52:42;;;;;;;;;11.67;11.67;;;;;;;;5019995;28;45324;-68
2022/10/10 07:55:08;;;;;;;;;17.00;15.00;;;;;;;;5021854;28;45765;-68
2022/10/10 07:57:34;;;;;;;;;18.00;14.67;;;;;;;;5019880;28;45451;-67
2022/10/10 08:00:01;;;;;;;;;8.67;8.67;;;;;;;;5015684;28;46345;-68
2022/10/10 08:02:26;;;;;;;;;11.67;11.33;;;;;;;;5017690;28;45387;-68
2022/10/10 08:04:51;;;;;;;;;16.00;16.00;;;;;;;;5016463;28;45611;-68
2022/10/10 08:07:18;;;;;;;;;19.33;15.33;;;;;;;;5012450;28;45949;-68
2022/10/10 08:09:43;;;;;;;;;16.00;12.67;;;;;;;;5019215;28;46255;-68
2022/10/10 08:12:08;;;;;;;;;14.00;13.00;;;;;;;;5001939;28;46010;-69
2022/10/10 08:14:34;;;;;;;;;19.00;16.00;;;;;;;;5021646;28;45487;-68
2022/10/10 08:16:59;;;;;;;;;14.33;13.33;;;;;;;;5021818;28;45416;-68
2022/10/10 08:19:24;;;;;;;;;17.00;13.33;;;;;;;;5020237;28;46273;-68
2022/10/10 08:21:49;;;;;;;;;8.67;7.00;;;;;;;;5015046;28;45455;-68
2022/10/10 08:24:14;;;;;;;;;12.00;12.00;;;;;;;;5021123;28;45361;-68
2022/10/10 08:26:40;;;;;;;;;14.67;14.33;;;;;;;;5022373;28;45368;-68
2022/10/10 08:29:05;;;;;;;;;12.33;12.33;;;;;;;;5015813;28;46200;-68
2022/10/10 08:31:30;;;;;;;;;16.00;13.33;;;;;;;;4992682;28;45579;-68
2022/10/10 08:33:55;;;;;;;;;14.00;14.00;;;;;;;;5009509;28;45306;-68
2022/10/10 08:36:22;;;;;;;;;16.67;12.00;;;;;;;;5004327;28;45672;-68
2022/10/10 08:38:48;;;;;;;;;11.33;10.00;;;;;;;;5008616;28;45343;-68
2022/10/10 08:41:24;;;;;;;;;14.00;14.00;;;;;;;;5011796;28;45353;-68
2022/10/10 08:43:59;;;;;;;;;15.33;11.00;;;;;;;;5007892;28;45478;-68
2022/10/10 08:46:40;;;;;;;;;14.67;10.33;;;;;;;;5017835;28;45547;-68
2022/10/10 08:49:14;;;;;;;;;13.00;12.00;;;;;;;;5011093;28;45553;-68
2022/10/10 08:51:41;;;;;;;;;9.67;9.67;;;;;;;;4992472;28;45695;-68
2022/10/10 08:54:10;;;;;;;;;10.67;10.67;;;;;;;;5010665;28;45459;-68
2022/10/10 08:56:37;;;;;;;;;13.67;12.33;;;;;;;;5011061;28;45472;-68
2022/10/10 08:59:06;;;;;;;;;16.00;11.00;;;;;;;;5016626;28;45481;-66
2022/10/10 09:01:35;;;;;;;;;11.67;11.00;;;;;;;;5016202;28;45285;-66
2022/10/10 09:04:03;;;;;;;;;11.33;11.33;;;;;;;;5006380;28;45493;-66
2022/10/10 09:06:40;;;;;;;;;4.33;4.33;;;;;;;;5016466;28;45633;-64
2022/10/10 09:09:19;;;;;;;;;10.67;9.00;;;;;;;;5012564;28;46139;-67
2022/10/10 09:12:02;;;;;;;;;10.33;9.67;;;;;;;;5006724;28;45327;-67
2022/10/10 09:14:49;;;;;;;;;11.33;11.33;;;;;;;;5014041;28;45719;-68
2022/10/10 09:17:24;;;;;;;;;13.00;11.00;;;;;;;;5014566;28;45643;-68
2022/10/10 09:20:09;;;;;;;;;13.33;10.33;;;;;;;;5014738;28;45419;-68
2022/10/10 09:22:42;;;;;;;;;12.33;8.67;;;;;;;;5014395;28;45707;-68
2022/10/10 09:25:19;;;;;;;;;10.00;9.00;;;;;;;;5015972;28;45455;-66
2022/10/10 09:27:53;;;;;;;;;9.67;9.67;;;;;;;;5016168;28;45371;-66
2022/10/10 09:30:19;;;;;;;;;11.33;10.00;;;;;;;;5016891;28;45538;-67
2022/10/10 09:32:49;;;;;;;;;8.67;8.67;;;;;;;;5016760;28;45433;-67
2022/10/10 09:35:15;;;;;;;;;10.33;9.33;;;;;;;;5016501;28;45447;-67
2022/10/10 09:37:42;;;;;;;;;12.33;10.67;;;;;;;;4999316;28;45459;-67
2022/10/10 09:40:14;;;;;;;;;11.00;9.00;;;;;;;;5016813;28;46275;-67
2022/10/10 09:42:42;;;;;;;;;7.67;7.00;;;;;;;;4998301;28;45608;-66
2022/10/10 09:45:13;;;;;;;;;8.67;7.33;;;;;;;;5019396;28;45499;-67
2022/10/10 09:47:38;;;;;;;;;13.00;11.67;;;;;;;;5020134;28;45474;-67
2022/10/10 09:50:04;;;;;;;;;11.00;9.33;;;;;;;;5020025;28;46003;-67
2022/10/10 09:52:30;;;;;;;;;13.00;11.33;;;;;;;;5020313;28;45423;-67
2022/10/10 09:55:12;;;;;;;;;10.33;9.33;;;;;;;;5020427;28;45437;-67
2022/10/10 09:57:39;;;;;;;;;19.00;11.00;;;;;;;;5018718;28;45820;-67
2022/10/10 10:00:31;;;;;;;;;10.00;10.00;;;;;;;;5023532;28;45518;-66
2022/10/10 10:03:08;;;;;;;;;8.67;8.67;;;;;;;;5013118;28;45486;-67
2022/10/10 10:05:34;;;;;;;;;5.00;4.67;;;;;;;;5022709;28;46667;-66
2022/10/10 10:07:59;;;;;;;;;11.33;9.00;;;;;;;;5010465;28;45510;-65
2022/10/10 10:10:25;;;;;;;;;15.00;11.00;;;;;;;;5021670;28;46118;-66
2022/10/10 10:12:52;;;;;;;;;12.33;11.67;;;;;;;;5022573;28;45321;-66
2022/10/10 10:15:20;;;;;;;;;8.67;8.67;;;;;;;;5021878;28;45391;-66
2022/10/10 10:17:46;;;;;;;;;10.33;9.67;;;;;;;;5021512;28;45414;-66
2022/10/10 10:20:30;;;;;;;;;9.67;8.67;;;;;;;;5023201;28;45446;-66
2022/10/10 10:22:55;;;;;;;;;11.00;10.33;;;;;;;;5003668;28;45464;-66
2022/10/10 10:25:31;;;;;;;;;10.00;9.33;;;;;;;;5020864;28;46458;-66
2022/10/10 10:28:18;;;;;;;;;12.00;8.33;;;;;;;;5023876;28;45466;-66
2022/10/10 10:30:45;;;;;;;;;11.33;9.67;;;;;;;;5019853;28;46168;-66
2022/10/10 10:33:28;;;;;;;;;10.00;9.33;;;;;;;;5019949;28;45357;-65
2022/10/10 10:36:17;;;;;;;;;11.33;9.33;;;;;;;;5020073;28;45802;-66
2022/10/10 10:38:45;;;;;;;;;14.00;12.00;;;;;;;;5002021;28;45661;-66
2022/10/10 10:41:10;;;;;;;;;10.33;10.00;;;;;;;;5020232;28;45511;-66
2022/10/10 10:43:35;;;;;;;;;16.00;13.00;;;;;;;;5019823;28;45452;-59
2022/10/10 10:46:19;;;;;;;;;9.33;8.67;;;;;;;;5017829;28;45416;-59
2022/10/10 10:48:56;;;;;;;;;11.00;10.67;;;;;;;;5019524;28;45260;-59
2022/10/10 10:51:21;;;;;;;;;9.33;8.00;;;;;;;;5015449;28;46293;-58
2022/10/10 10:53:52;;;;;;;;;12.33;9.00;;;;;;;;5020127;28;45690;-59
2022/10/10 10:56:24;;;;;;;;;8.00;8.00;;;;;;;;5018376;28;45514;-59
2022/10/10 10:59:08;;;;;;;;;11.33;9.33;;;;;;;;5018785;28;45448;-59
2022/10/10 11:01:33;;;;;;;;;10.33;10.00;;;;;;;;5018405;28;45348;-58
2022/10/10 11:04:15;;;;;;;;;11.33;9.00;;;;;;;;5019565;28;45401;-58
2022/10/10 11:06:40;;;;;;;;;11.67;9.67;;;;;;;;5020668;28;45341;-59
2022/10/10 11:09:12;;;;;;;;;9.67;7.67;;;;;;;;5019121;28;45685;-58
2022/10/10 11:11:45;;;;;;;;;11.67;11.00;;;;;;;;5018010;28;46143;-58
2022/10/10 11:14:10;;;;;;;;;14.33;13.67;;;;;;;;5011659;28;45377;-58
2022/10/10 11:16:45;;;;;;;;;15.00;11.00;;;;;;;;5019502;28;45364;-58
2022/10/10 11:19:13;;;;;;;;;13.33;11.00;;;;;;;;5019379;28;45627;-58
2022/10/10 11:22:08;;;;;;;;;9.33;9.33;;;;;;;;5025830;28;45956;-58
2022/10/10 11:24:39;;;;;;;;;4.00;2.33;;;;;;;;5001450;28;46112;-58
2022/10/10 11:27:25;;;;;;;;;6.67;6.67;;;;;;;;5016653;28;45395;-58
2022/10/10 11:29:55;;;;;;;;;12.00;11.00;;;;;;;;5027206;28;45424;-58
2022/10/10 11:32:27;;;;;;;;;10.00;10.00;;;;;;;;5019399;28;45662;-58
2022/10/10 11:35:11;;;;;;;;;10.33;9.33;;;;;;;;5019426;28;45579;-59
2022/10/10 11:37:39;;;;;;;;;10.67;9.00;;;;;;;;5025356;28;45352;-59
2022/10/10 11:40:05;;;;;;;;;16.33;12.00;;;;;;;;5024317;28;45476;-59
2022/10/10 11:42:40;;;;;;;;;12.33;10.67;;;;;;;;5022927;28;46080;-60
2022/10/10 11:45:12;;;;;;;;;15.33;11.33;;;;;;;;5020246;28;45583;-59
2022/10/10 11:47:41;;;;;;;;;12.33;10.00;;;;;;;;5010632;28;45824;-59
2022/10/10 11:50:14;;;;;;;;;12.00;12.00;;;;;;;;5011104;28;45584;-59
2022/10/10 11:52:45;;;;;;;;;15.00;11.00;;;;;;;;5015305;28;45634;-59
2022/10/10 11:55:30;;;;;;;;;14.00;12.67;;;;;;;;5019984;28;45440;-59
2022/10/10 11:58:17;;;;;;;;;16.67;10.67;;;;;;;;5014798;28;45498;-59
2022/10/10 12:00:44;;;;;;;;;10.33;10.00;;;;;;;;5019180;28;45408;-59
2022/10/10 12:03:10;;;;;;;;;13.00;11.33;;;;;;;;5018406;28;46160;-59
2022/10/10 12:05:39;;;;;;;;;11.67;10.67;;;;;;;;5018946;28;45423;-59
2022/10/10 12:08:23;;;;;;;;;12.33;12.00;;;;;;;;5017272;28;45599;-58
2022/10/10 12:10:51;;;;;;;;;14.33;11.33;;;;;;;;5017789;28;46640;-58
2022/10/10 12:13:34;;;;;;;;;11.00;10.00;;;;;;;;5017048;28;46379;-58
2022/10/10 12:16:05;;;;;;;;;11.00;9.33;;;;;;;;5017653;28;45359;-59
2022/10/10 12:18:37;;;;;;;;;11.33;11.33;;;;;;;;5017852;28;45503;-60
2022/10/10 12:21:07;;;;;;;;;10.33;8.00;;;;;;;;5016576;28;45504;-60
2022/10/10 12:23:32;;;;;;;;;9.67;9.00;;;;;;;;5016433;28;46262;-59
2022/10/10 12:25:58;;;;;;;;;17.00;13.00;;;;;;;;5018432;28;45410;-59
2022/10/10 12:28:25;;;;;;;;;15.67;14.33;;;;;;;;5014746;28;45617;-59
2022/10/10 12:30:51;;;;;;;;;18.33;17.00;;;;;;;;5018305;28;45626;-60
2022/10/10 12:33:40;;;;;;;;;14.33;14.33;;;;;;;;5019042;28;45404;-60
2022/10/10 12:36:18;;;;;;;;;15.67;13.67;;;;;;;;5008191;28;45493;-59
2022/10/10 12:39:05;;;;;;;;;16.00;13.33;;;;;;;;5017724;28;45411;-59
2022/10/10 12:41:48;;;;;;;;;13.00;13.00;;;;;;;;5017941;28;45486;-59
2022/10/10 12:44:14;;;;;;;;;16.33;13.33;;;;;;;;5019131;28;45494;-60
2022/10/10 12:46:40;;;;;;;;;11.67;11.67;;;;;;;;5013522;28;45850;-59
2022/10/10 12:49:18;;;;;;;;;14.00;14.00;;;;;;;;5018598;28;45357;-59
2022/10/10 12:51:56;;;;;;;;;15.33;14.33;;;;;;;;5010170;28;45524;-59
2022/10/10 12:54:28;;;;;;;;;17.00;15.00;;;;;;;;5017215;28;46582;-60
2022/10/10 12:57:01;;;;;;;;;13.67;11.00;;;;;;;;5015359;28;45475;-59
2022/10/10 12:59:26;;;;;;;;;14.33;13.00;;;;;;;;5012471;28;45667;-60
2022/10/10 13:01:54;;;;;;;;;14.00;12.00;;;;;;;;5021473;28;45719;-59
2022/10/10 13:04:20;;;;;;;;;13.00;11.67;;;;;;;;5029538;28;45351;-59
2022/10/10 13:06:47;;;;;;;;;16.00;13.33;;;;;;;;5013598;28;45482;-59
2022/10/10 13:09:18;;;;;;;;;14.00;12.67;;;;;;;;5019794;28;45471;-59
2022/10/10 13:11:51;;;;;;;;;9.33;8.33;;;;;;;;5016177;28;45353;-59
2022/10/10 13:14:17;;;;;;;;;11.33;11.33;;;;;;;;5017390;28;46122;-59
2022/10/10 13:16:43;;;;;;;;;13.33;11.00;;;;;;;;5017274;28;45394;-59
2022/10/10 13:19:14;;;;;;;;;12.33;11.33;;;;;;;;5016034;28;45392;-59
2022/10/10 13:21:40;;;;;;;;;19.00;13.33;;;;;;;;5014821;28;45458;-59
2022/10/10 13:24:05;;;;;;;;;11.00;11.00;;;;;;;;5017045;28;46039;-59
2022/10/10 13:26:36;;;;;;;;;12.67;12.00;;;;;;;;5013950;28;46320;-59
2022/10/10 13:29:20;;;;;;;;;15.67;12.67;;;;;;;;5019798;28;45552;-58
2022/10/10 13:31:45;;;;;;;;;12.67;12.33;;;;;;;;5014477;28;46420;-58
2022/10/10 13:34:13;;;;;;;;;13.33;12.00;;;;;;;;5013215;28;45748;-59
2022/10/10 13:36:39;;;;;;;;;15.67;14.33;;;;;;;;5016843;28;47124;-58
2022/10/10 13:39:04;;;;;;;;;15.00;13.00;;;;;;;;5016641;28;45871;-58
2022/10/10 13:41:29;;;;;;;;;12.33;11.33;;;;;;;;5015618;28;45360;-59
2022/10/10 13:43:54;;;;;;;;;12.67;12.67;;;;;;;;5017230;28;46282;-58
2022/10/10 13:46:21;;;;;;;;;16.00;12.67;;;;;;;;5015761;28;45510;-59
2022/10/10 13:48:46;;;;;;;;;14.67;12.33;;;;;;;;5020176;28;45407;-59
2022/10/10 13:51:13;;;;;;;;;18.67;12.33;;;;;;;;5013535;28;45276;-59
2022/10/10 13:53:41;;;;;;;;;13.67;11.67;;;;;;;;5025217;28;46280;-59
2022/10/10 13:56:11;;;;;;;;;12.33;10.00;;;;;;;;5028344;28;45907;-59
2022/10/10 13:58:41;;;;;;;;;14.67;12.00;;;;;;;;5016973;28;45316;-59
2022/10/10 14:01:25;;;;;;;;;13.00;13.00;;;;;;;;5019418;28;45863;-59
2022/10/10 14:03:50;;;;;;;;;12.67;12.67;;;;;;;;5020880;28;46152;-59
2022/10/10 14:06:20;;;;;;;;;13.33;10.00;;;;;;;;5015629;28;46033;-59
2022/10/10 14:08:47;;;;;;;;;15.33;13.67;;;;;;;;5013138;28;45478;-59
2022/10/10 14:11:15;;;;;;;;;13.00;11.67;;;;;;;;5016746;28;45380;-59
2022/10/10 14:13:43;;;;;;;;;10.00;10.00;;;;;;;;5022128;28;46169;-59
2022/10/10 14:16:21;;;;;;;;;12.00;11.00;;;;;;;;5016961;28;45404;-59
2022/10/10 14:18:47;;;;;;;;;12.00;10.67;;;;;;;;4998637;28;45411;-58
2022/10/10 14:21:12;;;;;;;;;13.67;12.67;;;;;;;;5017332;28;45420;-58
2022/10/10 14:23:38;;;;;;;;;13.00;10.00;;;;;;;;5016707;28;46169;-58
2022/10/10 14:26:04;;;;;;;;;10.67;10.00;;;;;;;;5017112;28;45384;-58
2022/10/10 14:28:30;;;;;;;;;12.33;12.00;;;;;;;;5016773;28;45278;-58
2022/10/10 14:30:56;;;;;;;;;12.33;9.67;;;;;;;;5028593;28;45640;-59
2022/10/10 14:33:21;;;;;;;;;12.00;12.00;;;;;;;;5020498;28;46258;-59
2022/10/10 14:35:48;;;;;;;;;13.67;10.67;;;;;;;;5020128;28;45372;-58
2022/10/10 14:38:13;;;;;;;;;13.00;12.67;;;;;;;;5021374;28;45514;-59
2022/10/10 14:40:42;;;;;;;;;24.00;19.00;;;;;;;;5020318;28;45487;-59
2022/10/10 14:43:08;;;;;;;;;13.00;13.00;;;;;;;;5009433;28;46221;-58
2022/10/10 14:45:33;;;;;;;;;15.33;13.00;;;;;;;;5019700;28;45671;-58
2022/10/10 14:47:58;;;;;;;;;19.67;15.00;;;;;;;;5020608;28;45655;-58
2022/10/10 14:50:26;;;;;;;;;12.00;12.00;;;;;;;;5014165;28;45507;-58
2022/10/10 14:52:51;;;;;;;;;19.33;11.00;;;;;;;;5019890;28;46279;-58
2022/10/10 14:55:16;;;;;;;;;13.33;11.00;;;;;;;;5020503;28;45385;-58
2022/10/10 14:57:41;;;;;;;;;12.00;10.67;;;;;;;;5017903;28;45656;-58
2022/10/10 15:00:11;;;;;;;;;12.33;9.00;;;;;;;;5023953;28;45392;-58
2022/10/10 15:02:36;;;;;;;;;16.33;12.33;;;;;;;;5029730;28;46113;-65
2022/10/10 15:05:01;;;;;;;;;14.67;11.33;;;;;;;;5026452;28;45268;-65
2022/10/10 15:07:26;;;;;;;;;13.00;9.33;;;;;;;;5005061;28;45691;-65
2022/10/10 15:09:52;;;;;;;;;14.67;11.67;;;;;;;;5028153;28;45464;-64
2022/10/10 15:12:17;;;;;;;;;11.67;11.00;;;;;;;;5025984;28;45601;-65
2022/10/10 15:14:42;;;;;;;;;12.00;10.67;;;;;;;;5021669;28;45567;-65
2022/10/10 15:17:07;;;;;;;;;16.00;12.33;;;;;;;;5019526;28;45498;-65
2022/10/10 15:19:32;;;;;;;;;12.00;10.33;;;;;;;;5019538;28;45439;-65
2022/10/10 15:21:58;;;;;;;;;14.67;13.00;;;;;;;;5032274;28;46186;-65
2022/10/10 15:24:23;;;;;;;;;10.33;10.33;;;;;;;;5019933;28;45724;-65
2022/10/10 15:26:48;;;;;;;;;12.33;12.33;;;;;;;;5033472;28;45701;-65
2022/10/10 15:29:13;;;;;;;;;12.00;10.67;;;;;;;;5019909;28;45737;-65
2022/10/10 15:31:38;;;;;;;;;12.33;10.33;;;;;;;;5019413;28;45461;-66
2022/10/10 15:34:04;;;;;;;;;12.33;10.33;;;;;;;;5029140;28;45598;-65
2022/10/10 15:36:31;;;;;;;;;12.67;11.00;;;;;;;;5025172;28;45909;-65
2022/10/10 15:38:57;;;;;;;;;14.00;12.67;;;;;;;;5002625;28;45465;-65
2022/10/10 15:41:22;;;;;;;;;11.33;8.00;;;;;;;;5016375;28;47191;-65
2022/10/10 15:43:53;;;;;;;;;10.67;9.67;;;;;;;;5021492;28;45894;-64
2022/10/10 15:46:23;;;;;;;;;12.67;10.33;;;;;;;;4993695;28;46001;-65
2022/10/10 15:48:48;;;;;;;;;13.67;10.67;;;;;;;;5024863;28;45703;-65
2022/10/10 15:51:14;;;;;;;;;9.33;7.33;;;;;;;;5014181;28;45642;-65
2022/10/10 15:53:39;;;;;;;;;10.33;7.67;;;;;;;;5013991;28;45779;-65
2022/10/10 15:56:05;;;;;;;;;10.33;10.00;;;;;;;;5017583;28;46588;-65
2022/10/10 15:58:30;;;;;;;;;10.67;10.33;;;;;;;;5017180;28;45395;-65
2022/10/10 16:00:55;;;;;;;;;13.67;12.33;;;;;;;;5016154;28;45412;-65
2022/10/10 16:03:20;;;;;;;;;12.67;10.67;;;;;;;;5022038;28;45435;-65
2022/10/10 16:05:46;;;;;;;;;13.00;12.00;;;;;;;;5016684;28;45495;-65
2022/10/10 16:08:11;;;;;;;;;12.00;11.00;;;;;;;;5016579;28;45562;-65
2022/10/10 16:10:37;;;;;;;;;9.33;9.00;;;;;;;;5014969;28;46113;-65
2022/10/10 16:13:03;;;;;;;;;12.67;8.67;;;;;;;;5016192;28;45420;-66
2022/10/10 16:15:28;;;;;;;;;15.00;12.67;;;;;;;;5024862;28;45674;-65
2022/10/10 16:17:53;;;;;;;;;11.00;9.33;;;;;;;;5018963;28;45598;-66
2022/10/10 16:20:18;;;;;;;;;11.00;9.00;;;;;;;;5010803;28;45412;-66
2022/10/10 16:22:43;;;;;;;;;8.33;7.00;;;;;;;;5016228;28;45393;-66
2022/10/10 16:25:09;;;;;;;;;12.67;11.00;;;;;;;;5015996;28;45348;-66
2022/10/10 16:27:35;;;;;;;;;9.33;9.33;;;;;;;;5014758;28;45447;-66
2022/10/10 16:30:00;;;;;;;;;11.33;9.33;;;;;;;;5015228;28;46122;-66
2022/10/10 16:32:25;;;;;;;;;11.33;10.00;;;;;;;;5011933;28;46319;-66
2022/10/10 16:34:50;;;;;;;;;11.33;9.67;;;;;;;;5015748;28;45410;-65
2022/10/10 16:37:16;;;;;;;;;14.33;11.00;;;;;;;;5022331;28;46564;-65
2022/10/10 16:39:41;;;;;;;;;11.00;11.00;;;;;;;;5009021;28;46006;-66
2022/10/10 16:42:06;;;;;;;;;10.67;10.00;;;;;;;;4993178;28;46054;-66
2022/10/10 16:44:31;;;;;;;;;11.33;11.33;;;;;;;;5006669;28;45447;-66
2022/10/10 16:46:57;;;;;;;;;15.00;11.33;;;;;;;;5010827;28;45460;-66
2022/10/10 16:49:22;;;;;;;;;15.33;13.00;;;;;;;;5005762;28;46046;-66
2022/10/10 16:51:48;;;;;;;;;14.67;10.00;;;;;;;;5013571;28;45470;-63
2022/10/10 16:54:13;;;;;;;;;20.00;14.33;;;;;;;;5006114;28;45520;-62
2022/10/10 16:56:38;;;;;;;;;17.00;12.33;;;;;;;;5008954;28;45856;-62
2022/10/10 16:59:03;;;;;;;;;18.67;12.00;;;;;;;;5012714;28;46305;-63
2022/10/10 17:01:29;;;;;;;;;17.67;13.33;;;;;;;;5015413;28;45628;-63
2022/10/10 17:03:56;;;;;;;;;15.67;13.00;;;;;;;;5010850;28;45418;-62
2022/10/10 17:06:22;;;;;;;;;11.33;11.00;;;;;;;;5013549;28;45388;-62
2022/10/10 17:08:48;;;;;;;;;12.67;12.00;;;;;;;;5012454;28;46294;-62
2022/10/10 17:11:14;;;;;;;;;13.67;11.00;;;;;;;;5011433;28;45548;-62
2022/10/10 17:13:39;;;;;;;;;14.00;12.00;;;;;;;;4996708;28;45494;-62
2022/10/10 17:16:05;;;;;;;;;12.33;12.00;;;;;;;;5008199;28;45386;-65
2022/10/10 17:18:32;;;;;;;;;17.67;14.67;;;;;;;;5007262;28;46257;-63
2022/10/10 17:20:57;;;;;;;;;13.67;13.00;;;;;;;;5013435;28;45487;-65
2022/10/10 17:23:22;;;;;;;;;11.67;9.00;;;;;;;;5007062;28;46679;-63
2022/10/10 17:25:47;;;;;;;;;18.67;14.33;;;;;;;;5012822;28;45565;-65
2022/10/10 17:28:13;;;;;;;;;17.67;13.00;;;;;;;;5008358;28;46166;-62
2022/10/10 17:30:42;;;;;;;;;16.33;12.67;;;;;;;;5012497;28;45364;-63
2022/10/10 17:33:08;;;;;;;;;19.67;14.00;;;;;;;;5014216;28;45369;-69
2022/10/10 17:35:33;;;;;;;;;12.67;10.00;;;;;;;;5014613;28;45529;-70
2022/10/10 17:37:58;;;;;;;;;12.00;10.00;;;;;;;;4998311;28;47454;-70
2022/10/10 17:40:24;;;;;;;;;11.00;10.00;;;;;;;;5017612;28;45332;-70
2022/10/10 17:42:50;;;;;;;;;9.00;9.00;;;;;;;;5014883;28;45676;-70
2022/10/10 17:45:15;;;;;;;;;9.67;7.67;;;;;;;;5018507;28;45372;-70
2022/10/10 17:47:40;;;;;;;;;9.33;9.33;;;;;;;;5011556;28;46412;-70
2022/10/10 17:50:06;;;;;;;;;9.67;8.67;;;;;;;;5008664;28;45376;-70
2022/10/10 17:52:31;;;;;;;;;12.00;9.00;;;;;;;;5016412;28;45400;-70
2022/10/10 17:54:56;;;;;;;;;8.33;7.33;;;;;;;;5012573;28;45507;-70
2022/10/10 17:57:21;;;;;;;;;11.00;7.67;;;;;;;;5010217;28;45994;-70
2022/10/10 17:59:47;;;;;;;;;10.67;9.00;;;;;;;;5014631;28;46080;-70
2022/10/10 18:02:16;;;;;;;;;9.33;8.00;;;;;;;;5014658;28;45569;-70
2022/10/10 18:04:42;;;;;;;;;10.67;10.00;;;;;;;;5017845;28;45476;-70
2022/10/10 18:07:07;;;;;;;;;10.00;8.33;;;;;;;;5016462;28;45562;-68
2022/10/10 18:09:32;;;;;;;;;9.33;7.00;;;;;;;;5020395;28;45931;-68
2022/10/10 18:11:57;;;;;;;;;10.33;10.33;;;;;;;;5019665;28;45450;-69
2022/10/10 18:14:23;;;;;;;;;9.33;9.00;;;;;;;;5020055;28;45239;-69
2022/10/10 18:16:48;;;;;;;;;10.00;7.67;;;;;;;;5015085;28;46933;-68
2022/10/10 18:19:13;;;;;;;;;13.33;9.67;;;;;;;;5028565;28;45606;-68
2022/10/10 18:21:38;;;;;;;;;6.00;6.00;;;;;;;;5022652;28;45434;-69
2022/10/10 18:24:04;;;;;;;;;10.67;10.67;;;;;;;;5028098;28;45391;-70
2022/10/10 18:26:29;;;;;;;;;10.67;9.33;;;;;;;;5017493;28;45449;-69
2022/10/10 18:28:55;;;;;;;;;8.00;8.00;;;;;;;;5019096;28;45502;-69
2022/10/10 18:31:21;;;;;;;;;13.33;9.67;;;;;;;;5015565;28;45344;-69
2022/10/10 18:33:47;;;;;;;;;10.00;7.00;;;;;;;;5012839;28;45500;-69
2022/10/10 18:36:14;;;;;;;;;8.00;8.00;;;;;;;;5018886;28;46250;-69
2022/10/10 18:38:39;;;;;;;;;15.33;9.33;;;;;;;;5017835;28;45395;-68
2022/10/10 18:41:05;;;;;;;;;8.33;8.33;;;;;;;;5017856;28;45459;-69
2022/10/10 18:43:31;;;;;;;;;10.00;10.00;;;;;;;;5019404;28;45632;-69
2022/10/10 18:46:02;;;;;;;;;10.00;8.00;;;;;;;;5019363;28;46270;-69
2022/10/10 18:48:28;;;;;;;;;12.00;12.00;;;;;;;;5020255;28;45427;-69
2022/10/10 18:51:00;;;;;;;;;15.33;10.33;;;;;;;;5019023;28;45380;-69
2022/10/10 18:53:25;;;;;;;;;14.00;11.00;;;;;;;;5010047;28;45384;-69
2022/10/10 18:55:58;;;;;;;;;14.67;12.67;;;;;;;;5014243;28;46352;-69